Time;durP1;ratioP1;P1;durP2;ratioP2;P2;SDS_P1;SDS_P2;PMS_P1;PMS_P2;Temp;Humidity;BMP_temperature;BMP_pressure;BME280_temperature;BME280_humidity;BME280_pressure;Samples;Min_cycle;Max_cycle;Signal;HPM_P1;HPM_P2
2023/04/17 00:01:56;;;;;;;;;;;8.20;99.90;;;;;;5084420;28;19927;-68
2023/04/17 00:04:23;;;;;;;;;;;8.20;99.90;;;;;;5084267;28;19992;-67
2023/04/17 00:06:52;;;;;;;;;;;8.20;99.90;;;;;;5080931;28;19978;-68
2023/04/17 00:09:19;;;;;;;;;;;8.20;99.90;;;;;;5064390;28;19952;-68
2023/04/17 00:11:47;;;;;;;;;;;8.20;99.90;;;;;;5064266;28;19921;-68
2023/04/17 00:14:14;;;;;;;;;;;8.20;99.90;;;;;;5064120;28;19921;-68
2023/04/17 00:16:40;;;;;;;;;;;8.20;99.90;;;;;;5063444;28;20173;-68
2023/04/17 00:19:07;;;;;;;;;;;8.20;99.90;;;;;;5064180;28;19948;-68
2023/04/17 00:21:34;;;;;;;;;;;8.20;99.90;;;;;;5063694;28;19943;-68
2023/04/17 00:24:00;;;;;;;;;;;8.10;99.90;;;;;;5063934;28;19992;-68
2023/04/17 00:26:27;;;;;;;;;;;8.20;99.90;;;;;;5043165;28;19952;-68
2023/04/17 00:28:55;;;;;;;;;;;8.20;99.90;;;;;;5044010;28;19928;-68
2023/04/17 00:31:22;;;;;;;;;;;8.20;99.90;;;;;;5043707;28;20164;-68
2023/04/17 00:33:48;;;;;;;;;;;8.20;99.90;;;;;;5063473;28;20227;-68
2023/04/17 00:36:15;;;;;;;;;;;8.20;99.90;;;;;;5063309;28;19920;-68
2023/04/17 00:38:41;;;;;;;;;;;8.20;99.90;;;;;;5063848;28;19988;-68
2023/04/17 00:41:10;;;;;;;;;;;8.20;99.90;;;;;;5062825;28;20888;-68
2023/04/17 00:43:37;;;;;;;;;;;8.10;99.90;;;;;;5063343;28;19921;-68
2023/04/17 00:46:05;;;;;;;;;;;8.20;99.90;;;;;;5063164;28;19952;-68
2023/04/17 00:48:32;;;;;;;;;;;8.10;99.90;;;;;;5078075;28;20093;-68
2023/04/17 00:51:01;;;;;;;;;;;8.10;99.90;;;;;;5083594;28;20274;-69
2023/04/17 00:53:27;;;;;;;;;;;8.20;99.90;;;;;;5082339;28;19927;-68
2023/04/17 00:55:54;;;;;;;;;;;8.20;99.90;;;;;;5083610;28;20111;-69
2023/04/17 00:58:21;;;;;;;;;;;8.10;99.90;;;;;;5083258;28;19980;-69
2023/04/17 01:00:48;;;;;;;;;;;8.10;99.90;;;;;;5083521;28;19927;-68
2023/04/17 01:03:16;;;;;;;;;;;8.20;99.90;;;;;;5083753;28;19927;-68
2023/04/17 01:05:43;;;;;;;;;;;8.20;99.90;;;;;;5083066;28;19932;-68
2023/04/17 01:08:10;;;;;;;;;;;8.20;99.90;;;;;;5081615;28;20200;-68
2023/04/17 01:10:37;;;;;;;;;;;8.20;99.90;;;;;;5063069;28;19957;-68
2023/04/17 01:13:03;;;;;;;;;;;8.20;99.90;;;;;;5063331;28;19928;-67
2023/04/17 01:15:30;;;;;;;;;;;8.20;99.90;;;;;;5063135;28;19921;-68
2023/04/17 01:17:57;;;;;;;;;;;8.20;99.90;;;;;;5060024;28;19996;-68
2023/04/17 01:20:30;;;;;;;;;;;8.20;99.90;;;;;;5062864;28;20275;-68
2023/04/17 01:22:56;;;;;;;;;;;8.20;99.90;;;;;;5066673;28;20267;-68
2023/04/17 01:25:24;;;;;;;;;;;8.20;99.90;;;;;;5066879;28;19956;-67
2023/04/17 01:27:51;;;;;;;;;;;8.10;99.90;;;;;;5066605;28;19921;-68
2023/04/17 01:30:17;;;;;;;;;;;8.20;99.90;;;;;;5057530;28;19959;-69
2023/04/17 01:32:44;;;;;;;;;;;8.10;99.90;;;;;;5066846;28;19920;-68
2023/04/17 01:35:11;;;;;;;;;;;8.20;99.90;;;;;;5066779;28;19960;-68
2023/04/17 01:37:37;;;;;;;;;;;8.20;99.90;;;;;;5066057;28;19976;-69
2023/04/17 01:40:05;;;;;;;;;;;8.20;99.90;;;;;;5066713;28;19984;-69
2023/04/17 01:42:33;;;;;;;;;;;8.20;99.90;;;;;;5066990;28;19921;-67
2023/04/17 01:45:00;;;;;;;;;;;8.20;99.90;;;;;;5066550;28;19929;-68
2023/04/17 01:47:26;;;;;;;;;;;8.20;99.90;;;;;;5072203;28;19983;-68
2023/04/17 01:49:53;;;;;;;;;;;8.10;99.90;;;;;;5086816;28;19983;-68
2023/04/17 01:52:20;;;;;;;;;;;8.10;99.90;;;;;;5085636;28;20177;-68
2023/04/17 01:54:47;;;;;;;;;;;8.10;99.90;;;;;;5066524;28;19980;-68
2023/04/17 01:57:13;;;;;;;;;;;8.00;99.90;;;;;;5065994;28;19991;-69
2023/04/17 01:59:41;;;;;;;;;;;8.00;99.90;;;;;;5066702;28;20157;-68
2023/04/17 02:02:08;;;;;;;;;;;8.00;99.90;;;;;;5066720;28;19921;-68
2023/04/17 02:04:34;;;;;;;;;;;7.90;99.90;;;;;;5066379;28;19963;-69
2023/04/17 02:07:01;;;;;;;;;;;8.00;99.90;;;;;;5065763;28;19980;-68
2023/04/17 02:09:28;;;;;;;;;;;8.00;99.90;;;;;;5066661;28;19920;-68
2023/04/17 02:11:55;;;;;;;;;;;8.00;99.90;;;;;;5066066;28;19927;-68
2023/04/17 02:14:22;;;;;;;;;;;8.00;99.90;;;;;;5066448;28;19921;-68
2023/04/17 02:16:50;;;;;;;;;;;8.00;99.90;;;;;;5065654;28;19963;-68
2023/04/17 02:19:16;;;;;;;;;;;8.00;99.90;;;;;;5066377;28;19984;-68
2023/04/17 02:21:43;;;;;;;;;;;8.00;99.90;;;;;;5066324;28;20119;-67
2023/04/17 02:24:10;;;;;;;;;;;8.00;99.90;;;;;;5065978;28;19983;-68
2023/04/17 02:26:36;;;;;;;;;;;8.00;99.90;;;;;;5065031;28;19956;-68
2023/04/17 02:29:03;;;;;;;;;;;8.00;99.90;;;;;;5065882;28;19920;-68
2023/04/17 02:31:30;;;;;;;;;;;8.00;99.90;;;;;;5066081;28;19959;-67
2023/04/17 02:33:58;;;;;;;;;;;8.00;99.90;;;;;;5064786;28;19927;-69
2023/04/17 02:36:26;;;;;;;;;;;8.00;99.90;;;;;;5065002;28;20218;-68
2023/04/17 02:38:52;;;;;;;;;;;8.00;99.90;;;;;;5066037;28;19943;-68
2023/04/17 02:41:19;;;;;;;;;;;8.00;99.90;;;;;;5066062;28;19921;-68
2023/04/17 02:43:46;;;;;;;;;;;8.00;99.90;;;;;;5065800;28;19921;-68
2023/04/17 02:46:12;;;;;;;;;;;8.00;99.90;;;;;;5065354;28;19924;-68
2023/04/17 02:48:39;;;;;;;;;;;8.10;99.90;;;;;;5081473;28;19984;-68
2023/04/17 02:51:07;;;;;;;;;;;8.10;99.90;;;;;;5085614;28;20345;-68
2023/04/17 02:53:35;;;;;;;;;;;8.00;99.90;;;;;;5082899;28;19987;-68
2023/04/17 02:56:01;;;;;;;;;;;8.10;99.90;;;;;;5085429;28;19956;-68
2023/04/17 02:58:28;;;;;;;;;;;8.00;99.90;;;;;;5085244;28;20177;-68
2023/04/17 03:00:59;;;;;;;;;;;8.00;99.90;;;;;;5078969;28;19992;-67
2023/04/17 03:03:29;;;;;;;;;;;8.00;99.90;;;;;;5065299;28;19963;-68
2023/04/17 03:05:56;;;;;;;;;;;8.00;99.90;;;;;;5064785;28;20111;-68
2023/04/17 03:08:24;;;;;;;;;;;8.00;99.90;;;;;;5064961;28;19920;-68
2023/04/17 03:10:51;;;;;;;;;;;8.00;99.90;;;;;;5065381;28;19921;-68
2023/04/17 03:13:17;;;;;;;;;;;8.00;99.90;;;;;;5065185;28;19921;-68
2023/04/17 03:15:44;;;;;;;;;;;8.00;99.90;;;;;;5065071;28;19987;-68
2023/04/17 03:18:10;;;;;;;;;;;8.00;99.90;;;;;;5064722;28;19920;-68
2023/04/17 03:20:37;;;;;;;;;;;7.90;99.90;;;;;;5065190;28;19988;-68
2023/04/17 03:23:04;;;;;;;;;;;7.90;99.90;;;;;;5064857;28;20087;-68
2023/04/17 03:25:32;;;;;;;;;;;7.90;99.90;;;;;;5064748;28;19987;-68
2023/04/17 03:27:58;;;;;;;;;;;7.90;99.90;;;;;;5064347;28;19920;-69
2023/04/17 03:30:25;;;;;;;;;;;7.90;99.90;;;;;;5064365;28;20268;-67
2023/04/17 03:32:51;;;;;;;;;;;8.00;99.90;;;;;;5064493;28;19993;-68
2023/04/17 03:35:18;;;;;;;;;;;8.00;99.90;;;;;;5064899;28;19958;-68
2023/04/17 03:37:45;;;;;;;;;;;8.00;99.90;;;;;;5063631;28;19928;-68
2023/04/17 03:40:12;;;;;;;;;;;8.00;99.90;;;;;;5064755;28;19920;-67
2023/04/17 03:42:40;;;;;;;;;;;8.00;99.90;;;;;;5064473;28;19927;-68
2023/04/17 03:45:07;;;;;;;;;;;8.00;99.90;;;;;;5063841;28;19927;-68
2023/04/17 03:47:34;;;;;;;;;;;8.00;99.90;;;;;;5070843;28;19927;-68
2023/04/17 03:50:00;;;;;;;;;;;7.90;99.90;;;;;;5084180;28;20267;-68
2023/04/17 03:52:27;;;;;;;;;;;8.00;99.90;;;;;;5082988;28;19952;-68
2023/04/17 03:54:53;;;;;;;;;;;8.00;99.90;;;;;;5081179;28;19939;-68
2023/04/17 03:57:20;;;;;;;;;;;8.00;99.90;;;;;;5063807;28;20180;-68
2023/04/17 03:59:48;;;;;;;;;;;8.00;99.90;;;;;;5044155;28;19953;-68
2023/04/17 04:02:15;;;;;;;;;;;8.00;99.90;;;;;;5051937;28;19927;-68
2023/04/17 04:04:41;;;;;;;;;;;8.00;99.90;;;;;;5064140;28;19948;-68
2023/04/17 04:07:08;;;;;;;;;;;8.00;99.90;;;;;;5063288;28;19992;-68
2023/04/17 04:09:34;;;;;;;;;;;8.00;99.90;;;;;;5064268;28;19952;-68
2023/04/17 04:12:01;;;;;;;;;;;8.00;99.90;;;;;;5064114;28;20140;-68
2023/04/17 04:14:28;;;;;;;;;;;8.00;99.90;;;;;;5064253;28;19921;-68
2023/04/17 04:16:56;;;;;;;;;;;8.00;99.90;;;;;;5063067;28;19992;-68
2023/04/17 04:19:22;;;;;;;;;;;7.90;99.90;;;;;;5063916;28;19927;-68
2023/04/17 04:21:49;;;;;;;;;;;7.90;99.90;;;;;;5063702;28;19987;-68
2023/04/17 04:24:16;;;;;;;;;;;7.90;99.90;;;;;;5063824;28;19921;-68
2023/04/17 04:26:43;;;;;;;;;;;7.90;99.90;;;;;;5063611;28;19920;-68
2023/04/17 04:29:10;;;;;;;;;;;7.90;99.90;;;;;;5063415;28;19989;-68
2023/04/17 04:31:37;;;;;;;;;;;7.90;99.90;;;;;;5063776;28;19928;-67
2023/04/17 04:34:05;;;;;;;;;;;7.90;99.90;;;;;;5063753;28;19948;-68
2023/04/17 04:36:34;;;;;;;;;;;7.90;99.90;;;;;;5062700;28;19921;-68
2023/04/17 04:39:03;;;;;;;;;;;7.90;99.90;;;;;;5062381;28;19921;-68
2023/04/17 04:41:32;;;;;;;;;;;8.00;99.90;;;;;;5063107;28;20208;-68
2023/04/17 04:43:59;;;;;;;;;;;7.90;99.90;;;;;;5063342;28;19928;-68
2023/04/17 04:46:26;;;;;;;;;;;7.90;99.90;;;;;;5062822;28;19992;-68
2023/04/17 04:48:52;;;;;;;;;;;7.90;99.90;;;;;;5080856;28;20006;-68
2023/04/17 04:51:20;;;;;;;;;;;7.90;99.90;;;;;;5083233;28;19955;-68
2023/04/17 04:53:47;;;;;;;;;;;7.90;99.90;;;;;;5083576;28;19984;-68
2023/04/17 04:56:13;;;;;;;;;;;7.90;99.90;;;;;;5082556;28;19925;-68
2023/04/17 04:58:40;;;;;;;;;;;7.90;99.90;;;;;;5083140;28;19996;-68
2023/04/17 05:01:07;;;;;;;;;;;7.90;99.90;;;;;;5083272;28;19987;-68
2023/04/17 05:03:33;;;;;;;;;;;7.90;99.90;;;;;;5070796;28;19952;-68
2023/04/17 05:06:00;;;;;;;;;;;7.90;99.90;;;;;;5063049;28;19921;-68
2023/04/17 05:08:28;;;;;;;;;;;7.90;99.90;;;;;;5062784;28;19928;-68
2023/04/17 05:10:54;;;;;;;;;;;8.00;99.90;;;;;;5063253;28;20115;-69
2023/04/17 05:13:22;;;;;;;;;;;8.00;99.90;;;;;;5062221;28;19980;-68
2023/04/17 05:15:49;;;;;;;;;;;8.00;99.90;;;;;;5062797;28;19983;-68
2023/04/17 05:18:16;;;;;;;;;;;8.00;99.90;;;;;;5062915;28;20151;-68
2023/04/17 05:20:42;;;;;;;;;;;7.90;99.90;;;;;;5062900;28;19948;-68
2023/04/17 05:23:09;;;;;;;;;;;8.00;99.90;;;;;;5063308;28;19987;-68
2023/04/17 05:25:37;;;;;;;;;;;8.00;99.90;;;;;;5062710;28;20094;-69
2023/04/17 05:28:06;;;;;;;;;;;8.00;99.90;;;;;;5062417;28;19921;-67
2023/04/17 05:30:33;;;;;;;;;;;8.00;99.90;;;;;;5062328;28;20213;-71
2023/04/17 05:33:00;;;;;;;;;;;8.10;99.90;;;;;;5063011;28;19920;-68
2023/04/17 05:35:27;;;;;;;;;;;8.10;99.90;;;;;;5062058;28;19984;-68
2023/04/17 05:37:54;;;;;;;;;;;8.10;99.90;;;;;;5062278;28;19927;-68
2023/04/17 05:40:21;;;;;;;;;;;8.10;99.90;;;;;;5042776;28;19971;-68
2023/04/17 05:42:50;;;;;;;;;;;8.10;99.90;;;;;;5040300;28;19996;-68
2023/04/17 05:45:18;;;;;;;;;;;8.10;99.90;;;;;;5043011;28;19984;-67
2023/04/17 05:47:45;;;;;;;;;;;8.10;99.90;;;;;;5059024;28;19920;-68
2023/04/17 05:50:12;;;;;;;;;;;8.10;99.90;;;;;;5082630;28;19928;-68
2023/04/17 05:52:38;;;;;;;;;;;8.10;99.90;;;;;;5043020;28;19948;-68
2023/04/17 05:55:05;;;;;;;;;;;8.10;99.90;;;;;;5042833;28;20212;-69
2023/04/17 05:57:32;;;;;;;;;;;8.10;99.90;;;;;;5042531;28;19932;-68
2023/04/17 06:00:00;;;;;;;;;;;8.10;99.90;;;;;;5039826;28;20272;-68
2023/04/17 06:02:28;;;;;;;;;;;8.00;99.90;;;;;;5043052;28;19960;-68
2023/04/17 06:04:57;;;;;;;;;;;8.00;99.90;;;;;;5052672;28;19927;-68
2023/04/17 06:07:23;;;;;;;;;;;8.00;99.90;;;;;;5063212;28;19922;-68
2023/04/17 06:09:50;;;;;;;;;;;7.90;99.90;;;;;;5066373;28;19948;-67
2023/04/17 06:12:16;;;;;;;;;;;8.00;99.90;;;;;;5065203;28;19928;-68
2023/04/17 06:14:45;;;;;;;;;;;8.00;99.90;;;;;;5063139;28;19952;-68
2023/04/17 06:17:12;;;;;;;;;;;8.00;99.90;;;;;;5064807;28;19935;-70
2023/04/17 06:19:40;;;;;;;;;;;8.00;99.90;;;;;;5064898;28;19964;-67
2023/04/17 06:22:06;;;;;;;;;;;8.00;99.90;;;;;;5054164;28;19921;-69
2023/04/17 06:24:33;;;;;;;;;;;8.10;99.90;;;;;;5044775;28;19952;-67
2023/04/17 06:27:00;;;;;;;;;;;8.10;99.90;;;;;;5044209;28;19948;-67
2023/04/17 06:29:26;;;;;;;;;;;8.10;99.90;;;;;;5044896;28;19996;-67
2023/04/17 06:31:53;;;;;;;;;;;8.10;99.90;;;;;;5058869;28;19987;-67
2023/04/17 06:34:19;;;;;;;;;;;8.10;99.90;;;;;;5064993;28;20184;-67
2023/04/17 06:36:48;;;;;;;;;;;8.10;99.90;;;;;;5064402;28;19958;-67
2023/04/17 06:39:14;;;;;;;;;;;8.10;99.90;;;;;;5065952;28;19929;-67
2023/04/17 06:41:41;;;;;;;;;;;8.10;99.90;;;;;;5065575;28;19921;-67
2023/04/17 06:44:08;;;;;;;;;;;8.10;99.90;;;;;;5066004;28;19971;-67
2023/04/17 06:46:34;;;;;;;;;;;8.10;99.90;;;;;;5064675;28;19921;-67
2023/04/17 06:49:01;;;;;;;;;;;8.10;99.90;;;;;;5065079;28;19979;-67
2023/04/17 06:51:28;;;;;;;;;;;8.20;99.90;;;;;;5056629;28;19967;-66
2023/04/17 06:53:56;;;;;;;;;;;8.20;99.90;;;;;;5060008;28;19920;-66
2023/04/17 06:56:23;;;;;;;;;;;8.20;99.90;;;;;;5064873;28;20019;-67
2023/04/17 06:58:49;;;;;;;;;;;8.30;99.90;;;;;;5065181;28;20263;-67
2023/04/17 07:01:17;;;;;;;;;;;8.20;99.90;;;;;;5062873;28;20015;-66
2023/04/17 07:03:44;;;;;;;;;;;8.30;99.90;;;;;;5065425;28;19956;-67
2023/04/17 07:06:10;;;;;;;;;;;8.20;99.90;;;;;;5064849;28;19960;-66
2023/04/17 07:08:37;;;;;;;;;;;8.20;99.90;;;;;;5065262;28;20147;-67
2023/04/17 07:11:06;;;;;;;;;;;8.20;99.90;;;;;;5065201;28;19936;-66
2023/04/17 07:13:33;;;;;;;;;;;8.30;99.90;;;;;;5065263;28;19920;-67
2023/04/17 07:16:00;;;;;;;;;;;8.30;99.90;;;;;;5064462;28;19952;-66
2023/04/17 07:18:28;;;;;;;;;;;8.40;99.90;;;;;;5064813;28;20082;-67
2023/04/17 07:20:55;;;;;;;;;;;8.40;99.90;;;;;;5064770;28;20163;-67
2023/04/17 07:23:21;;;;;;;;;;;8.30;99.90;;;;;;5065107;28;19987;-69
2023/04/17 07:25:48;;;;;;;;;;;8.30;99.90;;;;;;5064276;28;19955;-68
2023/04/17 07:28:18;;;;;;;;;;;8.30;99.90;;;;;;5062444;28;20200;-68
2023/04/17 07:30:45;;;;;;;;;;;8.40;99.90;;;;;;5064772;28;19987;-68
2023/04/17 07:33:12;;;;;;;;;;;8.30;99.90;;;;;;5064923;28;19921;-68
2023/04/17 07:35:38;;;;;;;;;;;8.40;99.90;;;;;;5064495;28;19984;-68
2023/04/17 07:38:05;;;;;;;;;;;8.50;99.90;;;;;;5063272;28;19963;-69
2023/04/17 07:40:32;;;;;;;;;;;8.50;99.90;;;;;;5055132;28;19999;-69
2023/04/17 07:42:59;;;;;;;;;;;8.50;99.90;;;;;;5063581;28;19925;-68
2023/04/17 07:45:27;;;;;;;;;;;8.50;99.90;;;;;;5063451;28;19920;-69
2023/04/17 07:47:54;;;;;;;;;;;8.50;99.90;;;;;;5063097;28;19958;-68
2023/04/17 07:50:21;;;;;;;;;;;8.60;99.90;;;;;;5064089;28;19929;-68
2023/04/17 07:52:47;;;;;;;;;;;8.60;99.90;;;;;;5063979;28;19952;-68
2023/04/17 07:55:14;;;;;;;;;;;8.60;99.90;;;;;;5063869;28;19959;-68
2023/04/17 07:57:41;;;;;;;;;;;8.60;99.90;;;;;;5063556;28;20187;-68
2023/04/17 08:00:09;;;;;;;;;;;8.70;99.90;;;;;;5064093;28;19940;-68
2023/04/17 08:02:38;;;;;;;;;;;8.70;99.90;;;;;;5061661;28;20242;-69
2023/04/17 08:05:06;;;;;;;;;;;8.70;99.90;;;;;;5054385;28;19921;-68
2023/04/17 08:07:33;;;;;;;;;;;8.70;99.90;;;;;;5043552;28;20225;-68
2023/04/17 08:10:00;;;;;;;;;;;8.70;99.90;;;;;;5064063;28;20205;-68
2023/04/17 08:12:26;;;;;;;;;;;8.80;99.90;;;;;;5063813;28;19921;-68
2023/04/17 08:14:53;;;;;;;;;;;8.80;99.90;;;;;;5064278;28;20089;-68
2023/04/17 08:17:22;;;;;;;;;;;8.80;99.90;;;;;;5063393;28;19967;-68
2023/04/17 08:19:52;;;;;;;;;;;8.80;99.90;;;;;;5064181;28;19960;-68
2023/04/17 08:22:20;;;;;;;;;;;8.90;99.90;;;;;;5063860;28;19921;-68
2023/04/17 08:24:47;;;;;;;;;;;8.90;99.90;;;;;;5064021;28;19924;-69
2023/04/17 08:27:14;;;;;;;;;;;8.90;99.90;;;;;;5063769;28;19953;-68
2023/04/17 08:29:41;;;;;;;;;;;8.90;99.90;;;;;;5063762;28;20235;-68
2023/04/17 08:32:07;;;;;;;;;;;8.90;99.90;;;;;;5062981;28;19991;-68
2023/04/17 08:34:35;;;;;;;;;;;8.90;99.90;;;;;;5063846;28;19984;-69
2023/04/17 08:37:03;;;;;;;;;;;8.90;99.90;;;;;;5061972;28;19927;-68
2023/04/17 08:39:30;;;;;;;;;;;8.90;99.90;;;;;;5063419;28;19920;-70
2023/04/17 08:41:59;;;;;;;;;;;9.00;99.90;;;;;;5063308;28;20180;-69
2023/04/17 08:44:26;;;;;;;;;;;9.00;99.90;;;;;;5063702;28;19963;-68
2023/04/17 08:46:52;;;;;;;;;;;9.10;99.90;;;;;;5064210;28;19927;-68
2023/04/17 08:49:20;;;;;;;;;;;9.20;99.90;;;;;;5083733;28;19983;-68
2023/04/17 08:51:46;;;;;;;;;;;9.20;99.90;;;;;;5083583;28;19928;-68
2023/04/17 08:54:14;;;;;;;;;;;9.30;99.90;;;;;;5083659;28;19921;-68
2023/04/17 08:56:41;;;;;;;;;;;9.30;99.90;;;;;;5082883;28;20287;-68
2023/04/17 08:59:07;;;;;;;;;;;9.30;99.90;;;;;;5083342;28;19921;-69
2023/04/17 09:01:34;;;;;;;;;;;9.40;99.90;;;;;;5083572;28;19948;-68
2023/04/17 09:04:01;;;;;;;;;;;9.40;99.90;;;;;;5083630;28;19921;-68
2023/04/17 09:06:48;;;;;;;;;;;9.40;99.90;;;;;;5065380;28;19992;-68
2023/04/17 09:09:16;;;;;;;;;;;9.50;99.90;;;;;;5063348;28;19948;-68
2023/04/17 09:11:43;;;;;;;;;;;9.50;99.90;;;;;;5063441;28;19921;-69
2023/04/17 09:14:28;;;;;;;;;;;9.60;99.90;;;;;;5063467;28;19964;-69
2023/04/17 09:16:56;;;;;;;;;;;9.60;99.90;;;;;;5062775;28;20128;-69
2023/04/17 09:19:23;;;;;;;;;;;9.70;99.90;;;;;;5063395;28;19988;-70
2023/04/17 09:21:49;;;;;;;;;;;9.80;99.90;;;;;;5063376;28;19991;-69
2023/04/17 09:24:31;;;;;;;;;;;9.80;99.90;;;;;;5063335;28;19961;-69
2023/04/17 09:27:19;;;;;;;;;;;9.80;99.90;;;;;;5063362;28;19988;-69
2023/04/17 09:29:54;;;;;;;;;;;9.90;99.90;;;;;;5063214;28;19984;-69
2023/04/17 09:32:21;;;;;;;;;;;9.90;99.90;;;;;;5063606;28;20116;-70
2023/04/17 09:34:48;;;;;;;;;;;9.90;99.90;;;;;;5062722;28;19984;-68
2023/04/17 09:37:14;;;;;;;;;;;9.80;99.90;;;;;;5062288;28;19959;-68
2023/04/17 09:39:56;;;;;;;;;;;9.80;99.90;;;;;;5062597;28;20178;-68
2023/04/17 09:42:23;;;;;;;;;;;9.80;99.90;;;;;;5064102;28;19921;-68
2023/04/17 09:44:49;;;;;;;;;;;9.80;99.90;;;;;;5068024;28;19983;-69
2023/04/17 09:47:17;;;;;;;;;;;9.80;99.90;;;;;;5066565;28;19979;-68
2023/04/17 09:49:48;;;;;;;;;;;9.90;99.90;;;;;;5066973;28;19921;-69
2023/04/17 09:52:15;;;;;;;;;;;10.00;99.90;;;;;;5066587;28;19925;-69
2023/04/17 09:54:42;;;;;;;;;;;10.00;99.90;;;;;;5066470;28;19921;-70
2023/04/17 09:57:11;;;;;;;;;;;10.00;99.90;;;;;;5065127;28;20111;-69
2023/04/17 09:59:39;;;;;;;;;;;10.00;99.90;;;;;;5066294;28;19921;-68
2023/04/17 10:02:08;;;;;;;;;;;10.00;99.90;;;;;;5066222;28;19928;-69
2023/04/17 10:04:34;;;;;;;;;;;10.10;99.90;;;;;;5066783;28;19966;-68
2023/04/17 10:07:01;;;;;;;;;;;10.20;99.90;;;;;;5065811;28;19927;-69
2023/04/17 10:09:28;;;;;;;;;;;10.20;99.90;;;;;;5066325;28;19952;-68
2023/04/17 10:11:56;;;;;;;;;;;10.30;99.90;;;;;;5066632;28;20000;-69
2023/04/17 10:14:26;;;;;;;;;;;10.30;99.90;;;;;;5066370;28;20213;-68
2023/04/17 10:16:53;;;;;;;;;;;10.40;99.90;;;;;;5065903;28;19983;-68
2023/04/17 10:19:27;;;;;;;;;;;10.40;99.90;;;;;;5066194;28;19928;-69
2023/04/17 10:22:10;;;;;;;;;;;10.50;99.90;;;;;;5066149;28;19925;-68
2023/04/17 10:24:37;;;;;;;;;;;10.60;99.90;;;;;;5053747;28;19929;-69
2023/04/17 10:27:26;;;;;;;;;;;10.60;99.90;;;;;;5066064;28;19987;-69
2023/04/17 10:29:55;;;;;;;;;;;10.70;99.90;;;;;;5065851;28;20316;-69
2023/04/17 10:32:24;;;;;;;;;;;10.50;99.90;;;;;;5066297;28;19967;-68
2023/04/17 10:34:51;;;;;;;;;;;10.40;99.90;;;;;;5066050;28;20112;-69
2023/04/17 10:37:18;;;;;;;;;;;10.40;99.90;;;;;;5064566;28;19921;-69
2023/04/17 10:40:02;;;;;;;;;;;10.40;99.90;;;;;;5065840;28;19992;-69
2023/04/17 10:42:31;;;;;;;;;;;10.40;99.90;;;;;;5053454;28;19963;-69
2023/04/17 10:45:03;;;;;;;;;;;10.30;99.90;;;;;;5065563;28;20232;-69
2023/04/17 10:47:30;;;;;;;;;;;10.30;99.90;;;;;;5065527;28;19921;-69
2023/04/17 10:49:58;;;;;;;;;;;10.40;99.90;;;;;;5065741;28;19921;-69
2023/04/17 10:52:38;;;;;;;;;;;10.50;99.90;;;;;;5065901;28;19928;-69
2023/04/17 10:55:06;;;;;;;;;;;10.60;99.90;;;;;;5064674;28;19921;-69
2023/04/17 10:57:51;;;;;;;;;;;10.60;99.90;;;;;;5065052;28;19921;-68
2023/04/17 11:00:20;;;;;;;;;;;10.50;99.90;;;;;;5065614;28;20311;-70
2023/04/17 11:02:49;;;;;;;;;;;10.50;99.90;;;;;;5065801;28;19987;-68
2023/04/17 11:05:16;;;;;;;;;;;10.30;99.90;;;;;;5064830;28;20143;-69
2023/04/17 11:07:49;;;;;;;;;;;10.30;99.90;;;;;;5063166;28;19920;-69
2023/04/17 11:10:16;;;;;;;;;;;10.30;99.90;;;;;;5061931;28;19964;-68
2023/04/17 11:12:45;;;;;;;;;;;10.40;99.90;;;;;;5064874;28;19925;-69
2023/04/17 11:15:11;;;;;;;;;;;10.40;99.90;;;;;;5064998;28;20272;-68
2023/04/17 11:17:41;;;;;;;;;;;10.50;99.90;;;;;;5064958;28;19927;-69
2023/04/17 11:20:10;;;;;;;;;;;10.50;99.90;;;;;;5062892;28;19967;-69
2023/04/17 11:22:36;;;;;;;;;;;10.50;99.90;;;;;;5065465;28;19962;-68
2023/04/17 11:25:03;;;;;;;;;;;10.50;99.90;;;;;;5064659;28;19955;-68
2023/04/17 11:27:30;;;;;;;;;;;10.60;99.90;;;;;;5064703;28;19948;-68
2023/04/17 11:29:56;;;;;;;;;;;10.80;99.90;;;;;;5064698;28;19992;-68
2023/04/17 11:32:23;;;;;;;;;;;10.90;99.90;;;;;;5064664;28;20209;-68
2023/04/17 11:34:53;;;;;;;;;;;11.00;99.90;;;;;;5064806;28;19988;-68
2023/04/17 11:37:20;;;;;;;;;;;11.10;99.90;;;;;;5064025;28;19921;-69
2023/04/17 11:39:46;;;;;;;;;;;11.40;99.90;;;;;;5064522;28;19996;-69
2023/04/17 11:42:13;;;;;;;;;;;11.70;99.90;;;;;;5062548;28;19948;-69
2023/04/17 11:44:43;;;;;;;;;;;12.20;99.90;;;;;;5064367;28;19992;-69
2023/04/17 11:47:09;;;;;;;;;;;12.40;99.90;;;;;;5063910;28;20212;-69
2023/04/17 11:49:38;;;;;;;;;;;12.50;99.90;;;;;;5064434;28;19952;-69
2023/04/17 11:52:06;;;;;;;;;;;12.60;99.90;;;;;;5064514;28;19991;-68
2023/04/17 11:54:35;;;;;;;;;;;12.70;99.90;;;;;;5064778;28;19987;-69
2023/04/17 11:57:02;;;;;;;;;;;12.80;99.90;;;;;;5063949;28;19927;-68
2023/04/17 11:59:32;;;;;;;;;;;12.90;99.90;;;;;;5064572;28;20097;-68
2023/04/17 12:02:00;;;;;;;;;;;12.90;99.90;;;;;;5064113;28;20264;-68
2023/04/17 12:04:33;;;;;;;;;;;13.00;99.90;;;;;;5064225;28;19952;-68
2023/04/17 12:07:01;;;;;;;;;;;13.00;99.90;;;;;;5063537;28;19963;-68
2023/04/17 12:09:30;;;;;;;;;;;12.80;99.90;;;;;;5064236;28;19985;-69
2023/04/17 12:11:57;;;;;;;;;;;12.80;99.90;;;;;;5064292;28;19924;-68
2023/04/17 12:14:25;;;;;;;;;;;12.80;99.90;;;;;;5063373;28;19921;-68
2023/04/17 12:16:52;;;;;;;;;;;12.70;99.90;;;;;;5063655;28;19921;-69
2023/04/17 12:19:19;;;;;;;;;;;12.60;99.90;;;;;;5063997;28;20288;-68
2023/04/17 12:21:46;;;;;;;;;;;12.60;99.90;;;;;;5061518;28;19929;-70
2023/04/17 12:24:13;;;;;;;;;;;12.50;99.90;;;;;;5063812;28;19967;-67
2023/04/17 12:26:46;;;;;;;;;;;12.40;99.90;;;;;;5063239;28;19948;-67
2023/04/17 12:29:13;;;;;;;;;;;12.40;99.90;;;;;;5063518;28;20240;-67
2023/04/17 12:31:40;;;;;;;;;;;12.30;99.90;;;;;;5063908;28;19939;-69
2023/04/17 12:34:06;;;;;;;;;;;12.30;99.90;;;;;;5063448;28;20256;-67
2023/04/17 12:36:33;;;;;;;;;;;12.50;99.90;;;;;;5063398;28;19956;-67
2023/04/17 12:39:00;;;;;;;;;;;12.60;99.90;;;;;;5063601;28;20164;-67
2023/04/17 12:41:28;;;;;;;;;;;12.60;99.90;;;;;;5063539;28;19921;-67
2023/04/17 12:43:58;;;;;;;;;;;12.60;99.90;;;;;;5063714;28;20144;-67
2023/04/17 12:46:25;;;;;;;;;;;12.60;99.90;;;;;;5042607;28;19921;-68
2023/04/17 12:48:57;;;;;;;;;;;12.60;99.90;;;;;;5043705;28;19928;-68
2023/04/17 12:51:23;;;;;;;;;;;12.70;99.90;;;;;;5043484;28;19921;-67
2023/04/17 12:53:51;;;;;;;;;;;12.90;99.90;;;;;;5043388;28;19921;-67
2023/04/17 12:56:18;;;;;;;;;;;13.20;99.90;;;;;;5042588;28;19929;-70
2023/04/17 12:58:45;;;;;;;;;;;13.40;99.90;;;;;;5043554;28;19988;-67
2023/04/17 13:01:13;;;;;;;;;;;13.30;99.90;;;;;;5043404;28;19996;-67
2023/04/17 13:03:39;;;;;;;;;;;13.10;99.90;;;;;;5043456;28;19963;-67
2023/04/17 13:06:06;;;;;;;;;;;13.10;99.90;;;;;;5042538;28;19921;-67
2023/04/17 13:08:33;;;;;;;;;;;12.80;99.90;;;;;;5061100;28;19920;-67
2023/04/17 13:11:02;;;;;;;;;;;12.70;99.90;;;;;;5063320;28;19992;-67
2023/04/17 13:13:29;;;;;;;;;;;12.60;99.90;;;;;;5063357;28;19957;-67
2023/04/17 13:15:55;;;;;;;;;;;12.60;99.90;;;;;;5062939;28;19927;-67
2023/04/17 13:18:23;;;;;;;;;;;12.60;99.90;;;;;;5050609;28;19953;-67
2023/04/17 13:20:50;;;;;;;;;;;12.50;99.90;;;;;;5047075;28;19921;-67
2023/04/17 13:23:16;;;;;;;;;;;12.50;99.90;;;;;;5058814;28;20063;-67
2023/04/17 13:25:43;;;;;;;;;;;12.50;99.90;;;;;;5068181;28;19935;-70
2023/04/17 13:28:10;;;;;;;;;;;12.40;99.90;;;;;;5066377;28;19925;-67
2023/04/17 13:30:38;;;;;;;;;;;12.50;99.90;;;;;;5055298;28;20188;-67
2023/04/17 13:33:05;;;;;;;;;;;12.50;99.90;;;;;;5063962;28;20151;-68
2023/04/17 13:35:33;;;;;;;;;;;12.50;99.90;;;;;;5067003;28;20111;-67
2023/04/17 13:38:01;;;;;;;;;;;12.80;99.90;;;;;;5065980;28;19979;-67
2023/04/17 13:40:28;;;;;;;;;;;13.20;99.90;;;;;;5066935;28;19921;-67
2023/04/17 13:42:59;;;;;;;;;;;13.30;99.90;;;;;;5064465;28;19928;-67
2023/04/17 13:45:25;;;;;;;;;;;13.40;99.90;;;;;;5066675;28;19952;-66
2023/04/17 13:47:52;;;;;;;;;;;13.20;99.90;;;;;;5066508;28;20116;-66
2023/04/17 13:50:19;;;;;;;;;;;13.10;99.90;;;;;;5066806;28;19921;-67
2023/04/17 13:52:47;;;;;;;;;;;13.20;99.90;;;;;;5066521;28;19983;-67
2023/04/17 13:55:16;;;;;;;;;;;13.50;99.90;;;;;;5066684;28;19921;-67
2023/04/17 13:57:42;;;;;;;;;;;13.80;99.90;;;;;;5066211;28;19959;-67
2023/04/17 14:00:10;;;;;;;;;;;13.80;99.90;;;;;;5057665;28;19953;-67
2023/04/17 14:02:37;;;;;;;;;;;13.60;99.90;;;;;;5066057;28;20205;-67
2023/04/17 14:05:03;;;;;;;;;;;13.50;99.90;;;;;;5065699;28;19984;-68
2023/04/17 14:07:30;;;;;;;;;;;13.30;99.90;;;;;;5065866;28;20107;-69
2023/04/17 14:09:58;;;;;;;;;;;13.10;99.90;;;;;;5066476;28;19992;-68
2023/04/17 14:12:25;;;;;;;;;;;13.00;99.90;;;;;;5066218;28;19920;-68
2023/04/17 14:14:51;;;;;;;;;;;13.20;99.90;;;;;;5065959;28;19921;-69
2023/04/17 14:17:18;;;;;;;;;;;13.20;99.90;;;;;;5065603;28;19984;-72
2023/04/17 14:19:44;;;;;;;;;;;13.10;99.90;;;;;;5066180;28;19992;-69
2023/04/17 14:22:11;;;;;;;;;;;13.10;99.90;;;;;;5065927;28;19988;-69
2023/04/17 14:24:38;;;;;;;;;;;13.10;99.90;;;;;;5066166;28;19959;-69
2023/04/17 14:27:06;;;;;;;;;;;13.10;99.90;;;;;;5065097;28;19989;-70
2023/04/17 14:29:32;;;;;;;;;;;13.10;99.90;;;;;;5066006;28;19920;-69